sensor_id;sensor_type;location;lat;lon;timestamp;P1;durP1;ratioP1;P2;durP2;ratioP2
55784;SDS011;41709;52.536;5.688;2023-05-14T00:01:10;16.13;;;9.93;;
55784;SDS011;41709;52.536;5.688;2023-05-14T00:03:36;12.15;;;8.95;;
55784;SDS011;41709;52.536;5.688;2023-05-14T00:06:03;12.63;;;9.50;;
55784;SDS011;41709;52.536;5.688;2023-05-14T00:08:29;13.52;;;9.55;;
55784;SDS011;41709;52.536;5.688;2023-05-14T00:10:55;18.45;;;10.90;;
55784;SDS011;41709;52.536;5.688;2023-05-14T00:13:20;16.63;;;9.82;;
55784;SDS011;41709;52.536;5.688;2023-05-14T00:15:46;14.77;;;9.57;;
55784;SDS011;41709;52.536;5.688;2023-05-14T00:18:11;15.55;;;10.63;;
55784;SDS011;41709;52.536;5.688;2023-05-14T00:20:37;14.13;;;9.55;;
55784;SDS011;41709;52.536;5.688;2023-05-14T00:23:03;17.75;;;10.18;;
55784;SDS011;41709;52.536;5.688;2023-05-14T00:25:28;13.20;;;9.48;;
55784;SDS011;41709;52.536;5.688;2023-05-14T00:27:54;17.88;;;10.10;;
55784;SDS011;41709;52.536;5.688;2023-05-14T00:30:19;16.85;;;8.90;;
55784;SDS011;41709;52.536;5.688;2023-05-14T00:32:45;16.42;;;9.68;;
55784;SDS011;41709;52.536;5.688;2023-05-14T00:35:10;15.30;;;10.57;;
55784;SDS011;41709;52.536;5.688;2023-05-14T00:37:36;12.82;;;8.82;;
55784;SDS011;41709;52.536;5.688;2023-05-14T00:40:03;14.70;;;9.68;;
55784;SDS011;41709;52.536;5.688;2023-05-14T00:42:30;14.10;;;9.57;;
55784;SDS011;41709;52.536;5.688;2023-05-14T00:44:56;15.75;;;10.23;;
55784;SDS011;41709;52.536;5.688;2023-05-14T00:47:21;16.77;;;9.77;;
55784;SDS011;41709;52.536;5.688;2023-05-14T00:49:47;20.83;;;10.88;;
55784;SDS011;41709;52.536;5.688;2023-05-14T00:52:13;16.60;;;9.50;;
55784;SDS011;41709;52.536;5.688;2023-05-14T00:54:40;16.25;;;11.20;;
55784;SDS011;41709;52.536;5.688;2023-05-14T00:57:06;15.65;;;10.27;;
55784;SDS011;41709;52.536;5.688;2023-05-14T00:59:31;18.23;;;11.23;;
55784;SDS011;41709;52.536;5.688;2023-05-14T01:01:57;16.75;;;11.35;;
55784;SDS011;41709;52.536;5.688;2023-05-14T01:04:23;17.00;;;10.77;;
55784;SDS011;41709;52.536;5.688;2023-05-14T01:12:57;15.38;;;10.30;;
55784;SDS011;41709;52.536;5.688;2023-05-14T01:17:34;16.88;;;11.15;;
55784;SDS011;41709;52.536;5.688;2023-05-14T01:20:05;13.15;;;10.20;;
55784;SDS011;41709;52.536;5.688;2023-05-14T01:22:31;16.52;;;11.30;;
55784;SDS011;41709;52.536;5.688;2023-05-14T01:24:57;15.18;;;10.48;;
55784;SDS011;41709;52.536;5.688;2023-05-14T01:32:35;20.85;;;11.05;;
55784;SDS011;41709;52.536;5.688;2023-05-14T01:35:02;15.02;;;10.48;;
55784;SDS011;41709;52.536;5.688;2023-05-14T01:37:30;15.55;;;10.15;;
55784;SDS011;41709;52.536;5.688;2023-05-14T01:39:57;21.08;;;11.90;;
55784;SDS011;41709;52.536;5.688;2023-05-14T01:42:24;13.60;;;9.90;;
55784;SDS011;41709;52.536;5.688;2023-05-14T01:44:50;16.58;;;11.00;;
55784;SDS011;41709;52.536;5.688;2023-05-14T01:47:15;15.35;;;10.85;;
55784;SDS011;41709;52.536;5.688;2023-05-14T01:49:41;13.65;;;10.00;;
55784;SDS011;41709;52.536;5.688;2023-05-14T01:52:07;14.13;;;10.02;;
55784;SDS011;41709;52.536;5.688;2023-05-14T01:54:32;17.90;;;9.90;;
55784;SDS011;41709;52.536;5.688;2023-05-14T01:56:58;13.00;;;9.98;;
55784;SDS011;41709;52.536;5.688;2023-05-14T01:59:23;17.52;;;10.43;;
55784;SDS011;41709;52.536;5.688;2023-05-14T02:01:49;18.25;;;10.05;;
55784;SDS011;41709;52.536;5.688;2023-05-14T02:04:15;18.70;;;10.32;;
55784;SDS011;41709;52.536;5.688;2023-05-14T02:06:40;13.13;;;9.80;;
55784;SDS011;41709;52.536;5.688;2023-05-14T02:09:06;12.35;;;9.27;;
55784;SDS011;41709;52.536;5.688;2023-05-14T02:11:31;12.10;;;9.32;;
55784;SDS011;41709;52.536;5.688;2023-05-14T02:13:57;14.20;;;9.07;;
55784;SDS011;41709;52.536;5.688;2023-05-14T02:16:22;13.30;;;8.68;;
55784;SDS011;41709;52.536;5.688;2023-05-14T02:18:48;14.20;;;9.52;;
55784;SDS011;41709;52.536;5.688;2023-05-14T02:21:13;14.30;;;10.00;;
55784;SDS011;41709;52.536;5.688;2023-05-14T02:23:39;11.52;;;8.60;;
55784;SDS011;41709;52.536;5.688;2023-05-14T02:26:04;12.75;;;9.02;;
55784;SDS011;41709;52.536;5.688;2023-05-14T02:28:30;17.23;;;8.93;;
55784;SDS011;41709;52.536;5.688;2023-05-14T02:30:59;19.02;;;10.65;;
55784;SDS011;41709;52.536;5.688;2023-05-14T02:33:25;13.80;;;10.30;;
55784;SDS011;41709;52.536;5.688;2023-05-14T02:35:51;17.35;;;10.02;;
55784;SDS011;41709;52.536;5.688;2023-05-14T02:38:16;16.15;;;10.38;;
55784;SDS011;41709;52.536;5.688;2023-05-14T02:40:42;15.20;;;10.35;;
55784;SDS011;41709;52.536;5.688;2023-05-14T02:43:08;13.38;;;9.63;;
55784;SDS011;41709;52.536;5.688;2023-05-14T02:45:34;13.60;;;9.55;;
55784;SDS011;41709;52.536;5.688;2023-05-14T02:47:59;15.52;;;9.18;;
55784;SDS011;41709;52.536;5.688;2023-05-14T02:50:25;18.63;;;9.57;;
55784;SDS011;41709;52.536;5.688;2023-05-14T02:52:51;13.60;;;9.25;;
55784;SDS011;41709;52.536;5.688;2023-05-14T02:55:16;11.98;;;9.07;;
55784;SDS011;41709;52.536;5.688;2023-05-14T02:57:42;12.43;;;9.70;;
55784;SDS011;41709;52.536;5.688;2023-05-14T03:00:07;12.75;;;10.23;;
55784;SDS011;41709;52.536;5.688;2023-05-14T03:02:33;17.00;;;11.15;;
55784;SDS011;41709;52.536;5.688;2023-05-14T03:04:59;15.00;;;11.32;;
55784;SDS011;41709;52.536;5.688;2023-05-14T03:07:25;17.77;;;12.43;;
55784;SDS011;41709;52.536;5.688;2023-05-14T03:09:51;34.13;;;11.77;;
55784;SDS011;41709;52.536;5.688;2023-05-14T03:12:16;17.10;;;12.05;;
55784;SDS011;41709;52.536;5.688;2023-05-14T03:14:42;14.27;;;11.45;;
55784;SDS011;41709;52.536;5.688;2023-05-14T03:17:08;22.92;;;12.88;;
55784;SDS011;41709;52.536;5.688;2023-05-14T03:19:34;15.55;;;12.10;;
55784;SDS011;41709;52.536;5.688;2023-05-14T03:21:59;17.45;;;11.65;;
55784;SDS011;41709;52.536;5.688;2023-05-14T03:24:25;20.17;;;11.40;;
55784;SDS011;41709;52.536;5.688;2023-05-14T03:26:50;18.73;;;12.63;;
55784;SDS011;41709;52.536;5.688;2023-05-14T03:29:17;18.38;;;12.07;;
55784;SDS011;41709;52.536;5.688;2023-05-14T03:31:42;16.55;;;11.73;;
55784;SDS011;41709;52.536;5.688;2023-05-14T03:34:08;15.63;;;12.02;;
55784;SDS011;41709;52.536;5.688;2023-05-14T03:36:34;16.52;;;11.20;;
55784;SDS011;41709;52.536;5.688;2023-05-14T03:39:01;16.52;;;11.13;;
55784;SDS011;41709;52.536;5.688;2023-05-14T03:41:27;15.70;;;11.05;;
55784;SDS011;41709;52.536;5.688;2023-05-14T03:43:53;14.45;;;10.95;;
55784;SDS011;41709;52.536;5.688;2023-05-14T03:46:18;13.20;;;10.02;;
55784;SDS011;41709;52.536;5.688;2023-05-14T03:48:44;15.30;;;10.70;;
55784;SDS011;41709;52.536;5.688;2023-05-14T03:51:09;14.75;;;9.88;;
55784;SDS011;41709;52.536;5.688;2023-05-14T03:53:35;16.33;;;10.82;;
55784;SDS011;41709;52.536;5.688;2023-05-14T03:56:00;15.05;;;10.52;;
55784;SDS011;41709;52.536;5.688;2023-05-14T03:58:26;16.48;;;9.68;;
55784;SDS011;41709;52.536;5.688;2023-05-14T04:00:51;16.60;;;10.60;;
55784;SDS011;41709;52.536;5.688;2023-05-14T04:03:17;17.80;;;11.32;;
55784;SDS011;41709;52.536;5.688;2023-05-14T04:05:43;18.40;;;10.18;;
55784;SDS011;41709;52.536;5.688;2023-05-14T04:08:08;15.02;;;9.80;;
55784;SDS011;41709;52.536;5.688;2023-05-14T04:10:34;13.50;;;9.45;;
55784;SDS011;41709;52.536;5.688;2023-05-14T04:13:00;17.08;;;9.70;;
55784;SDS011;41709;52.536;5.688;2023-05-14T04:15:25;17.40;;;9.30;;
55784;SDS011;41709;52.536;5.688;2023-05-14T04:17:51;10.68;;;8.35;;
55784;SDS011;41709;52.536;5.688;2023-05-14T04:20:16;13.65;;;9.18;;
55784;SDS011;41709;52.536;5.688;2023-05-14T04:22:42;12.82;;;9.32;;
55784;SDS011;41709;52.536;5.688;2023-05-14T04:25:08;18.30;;;9.55;;
55784;SDS011;41709;52.536;5.688;2023-05-14T04:27:33;17.92;;;8.90;;
55784;SDS011;41709;52.536;5.688;2023-05-14T04:29:59;18.05;;;9.77;;
55784;SDS011;41709;52.536;5.688;2023-05-14T04:32:25;17.10;;;9.32;;
55784;SDS011;41709;52.536;5.688;2023-05-14T04:34:50;13.00;;;8.52;;
55784;SDS011;41709;52.536;5.688;2023-05-14T04:37:16;11.88;;;8.30;;
55784;SDS011;41709;52.536;5.688;2023-05-14T04:39:41;11.65;;;9.00;;
55784;SDS011;41709;52.536;5.688;2023-05-14T04:42:07;13.73;;;9.32;;
55784;SDS011;41709;52.536;5.688;2023-05-14T04:44:33;16.52;;;9.82;;
55784;SDS011;41709;52.536;5.688;2023-05-14T04:47:00;14.20;;;9.98;;
55784;SDS011;41709;52.536;5.688;2023-05-14T04:49:26;15.55;;;9.63;;
55784;SDS011;41709;52.536;5.688;2023-05-14T04:51:52;14.98;;;9.55;;
55784;SDS011;41709;52.536;5.688;2023-05-14T04:54:18;18.60;;;10.13;;
55784;SDS011;41709;52.536;5.688;2023-05-14T04:56:44;16.90;;;10.48;;
55784;SDS011;41709;52.536;5.688;2023-05-14T04:59:09;13.95;;;9.82;;
55784;SDS011;41709;52.536;5.688;2023-05-14T05:01:35;14.65;;;10.32;;
55784;SDS011;41709;52.536;5.688;2023-05-14T05:04:00;14.55;;;11.18;;
55784;SDS011;41709;52.536;5.688;2023-05-14T05:06:26;21.10;;;12.45;;
55784;SDS011;41709;52.536;5.688;2023-05-14T05:08:51;18.17;;;11.48;;
55784;SDS011;41709;52.536;5.688;2023-05-14T05:11:17;16.88;;;11.48;;
55784;SDS011;41709;52.536;5.688;2023-05-14T05:13:42;16.77;;;10.88;;
55784;SDS011;41709;52.536;5.688;2023-05-14T05:16:08;20.92;;;11.65;;
55784;SDS011;41709;52.536;5.688;2023-05-14T05:18:33;16.42;;;10.90;;
55784;SDS011;41709;52.536;5.688;2023-05-14T05:20:59;18.38;;;11.18;;
55784;SDS011;41709;52.536;5.688;2023-05-14T05:23:25;16.67;;;10.93;;
55784;SDS011;41709;52.536;5.688;2023-05-14T05:25:50;14.85;;;10.75;;
55784;SDS011;41709;52.536;5.688;2023-05-14T05:28:16;13.48;;;9.63;;
55784;SDS011;41709;52.536;5.688;2023-05-14T05:30:42;15.95;;;9.68;;
55784;SDS011;41709;52.536;5.688;2023-05-14T05:33:09;18.30;;;10.57;;
55784;SDS011;41709;52.536;5.688;2023-05-14T05:35:35;15.10;;;10.45;;
55784;SDS011;41709;52.536;5.688;2023-05-14T05:38:01;19.00;;;10.98;;
55784;SDS011;41709;52.536;5.688;2023-05-14T05:40:27;15.48;;;9.88;;
55784;SDS011;41709;52.536;5.688;2023-05-14T05:42:52;15.82;;;8.45;;
55784;SDS011;41709;52.536;5.688;2023-05-14T05:45:18;18.08;;;9.30;;
55784;SDS011;41709;52.536;5.688;2023-05-14T05:47:44;16.83;;;9.63;;
55784;SDS011;41709;52.536;5.688;2023-05-14T05:50:09;14.27;;;9.18;;
55784;SDS011;41709;52.536;5.688;2023-05-14T05:52:35;14.00;;;9.40;;
55784;SDS011;41709;52.536;5.688;2023-05-14T05:55:02;14.02;;;9.13;;
55784;SDS011;41709;52.536;5.688;2023-05-14T05:57:28;14.98;;;8.57;;
55784;SDS011;41709;52.536;5.688;2023-05-14T05:59:53;17.45;;;9.38;;
55784;SDS011;41709;52.536;5.688;2023-05-14T06:02:19;14.90;;;8.63;;
55784;SDS011;41709;52.536;5.688;2023-05-14T06:04:45;22.73;;;10.77;;
55784;SDS011;41709;52.536;5.688;2023-05-14T06:07:10;17.65;;;9.88;;
55784;SDS011;41709;52.536;5.688;2023-05-14T06:09:36;17.73;;;8.23;;
55784;SDS011;41709;52.536;5.688;2023-05-14T06:12:02;22.02;;;10.43;;
55784;SDS011;41709;52.536;5.688;2023-05-14T06:14:27;14.73;;;8.63;;
55784;SDS011;41709;52.536;5.688;2023-05-14T06:16:53;13.65;;;8.63;;
55784;SDS011;41709;52.536;5.688;2023-05-14T06:19:18;13.73;;;8.88;;
55784;SDS011;41709;52.536;5.688;2023-05-14T06:21:44;15.35;;;8.55;;
55784;SDS011;41709;52.536;5.688;2023-05-14T06:24:09;12.82;;;7.88;;
55784;SDS011;41709;52.536;5.688;2023-05-14T06:26:35;16.83;;;8.23;;
55784;SDS011;41709;52.536;5.688;2023-05-14T06:29:00;16.33;;;8.18;;
55784;SDS011;41709;52.536;5.688;2023-05-14T06:31:26;11.30;;;7.65;;
55784;SDS011;41709;52.536;5.688;2023-05-14T06:33:51;15.35;;;9.32;;
55784;SDS011;41709;52.536;5.688;2023-05-14T06:36:17;10.75;;;8.13;;
55784;SDS011;41709;52.536;5.688;2023-05-14T06:38:42;16.17;;;8.30;;
55784;SDS011;41709;52.536;5.688;2023-05-14T06:41:08;15.10;;;8.18;;
55784;SDS011;41709;52.536;5.688;2023-05-14T06:43:34;13.75;;;8.38;;
55784;SDS011;41709;52.536;5.688;2023-05-14T06:45:59;17.35;;;8.77;;
55784;SDS011;41709;52.536;5.688;2023-05-14T06:48:25;16.20;;;8.18;;
55784;SDS011;41709;52.536;5.688;2023-05-14T06:50:53;16.08;;;8.23;;
55784;SDS011;41709;52.536;5.688;2023-05-14T06:53:19;13.02;;;7.80;;
55784;SDS011;41709;52.536;5.688;2023-05-14T06:55:46;11.55;;;7.40;;
55784;SDS011;41709;52.536;5.688;2023-05-14T06:58:12;30.92;;;11.25;;
55784;SDS011;41709;52.536;5.688;2023-05-14T07:00:38;12.85;;;8.10;;
55784;SDS011;41709;52.536;5.688;2023-05-14T07:03:04;22.73;;;8.00;;
55784;SDS011;41709;52.536;5.688;2023-05-14T07:05:30;11.63;;;7.88;;
55784;SDS011;41709;52.536;5.688;2023-05-14T07:07:55;20.13;;;9.05;;
55784;SDS011;41709;52.536;5.688;2023-05-14T07:10:21;14.20;;;8.23;;
55784;SDS011;41709;52.536;5.688;2023-05-14T07:12:47;13.75;;;8.15;;
55784;SDS011;41709;52.536;5.688;2023-05-14T07:15:13;12.52;;;7.97;;
55784;SDS011;41709;52.536;5.688;2023-05-14T07:17:38;16.55;;;7.20;;
55784;SDS011;41709;52.536;5.688;2023-05-14T07:20:05;20.13;;;8.73;;
55784;SDS011;41709;52.536;5.688;2023-05-14T07:22:31;13.45;;;8.45;;
55784;SDS011;41709;52.536;5.688;2023-05-14T07:24:56;13.02;;;7.78;;
55784;SDS011;41709;52.536;5.688;2023-05-14T07:27:22;15.25;;;7.88;;
55784;SDS011;41709;52.536;5.688;2023-05-14T07:29:48;11.73;;;8.40;;
55784;SDS011;41709;52.536;5.688;2023-05-14T07:32:14;14.68;;;7.53;;
55784;SDS011;41709;52.536;5.688;2023-05-14T07:34:40;12.32;;;7.85;;
55784;SDS011;41709;52.536;5.688;2023-05-14T07:37:05;11.82;;;7.70;;
55784;SDS011;41709;52.536;5.688;2023-05-14T07:39:31;14.90;;;8.70;;
55784;SDS011;41709;52.536;5.688;2023-05-14T07:41:57;15.05;;;9.10;;
55784;SDS011;41709;52.536;5.688;2023-05-14T07:44:22;16.48;;;9.60;;
55784;SDS011;41709;52.536;5.688;2023-05-14T07:46:48;12.35;;;8.68;;
55784;SDS011;41709;52.536;5.688;2023-05-14T07:49:13;12.80;;;7.95;;
55784;SDS011;41709;52.536;5.688;2023-05-14T07:51:39;19.73;;;9.13;;
55784;SDS011;41709;52.536;5.688;2023-05-14T07:54:04;12.80;;;7.72;;
55784;SDS011;41709;52.536;5.688;2023-05-14T07:56:30;16.80;;;8.20;;
55784;SDS011;41709;52.536;5.688;2023-05-14T07:58:56;13.00;;;8.90;;
55784;SDS011;41709;52.536;5.688;2023-05-14T08:01:21;17.50;;;7.90;;
55784;SDS011;41709;52.536;5.688;2023-05-14T08:03:47;12.60;;;8.63;;
55784;SDS011;41709;52.536;5.688;2023-05-14T08:06:13;14.32;;;8.75;;
55784;SDS011;41709;52.536;5.688;2023-05-14T08:08:39;16.27;;;8.73;;
55784;SDS011;41709;52.536;5.688;2023-05-14T08:11:05;15.20;;;9.05;;
55784;SDS011;41709;52.536;5.688;2023-05-14T08:13:31;12.35;;;9.27;;
55784;SDS011;41709;52.536;5.688;2023-05-14T08:15:56;16.25;;;9.52;;
55784;SDS011;41709;52.536;5.688;2023-05-14T08:18:22;15.80;;;10.70;;
55784;SDS011;41709;52.536;5.688;2023-05-14T08:20:47;17.33;;;10.25;;
55784;SDS011;41709;52.536;5.688;2023-05-14T08:23:13;16.08;;;9.02;;
55784;SDS011;41709;52.536;5.688;2023-05-14T08:25:38;10.93;;;8.52;;
55784;SDS011;41709;52.536;5.688;2023-05-14T08:28:04;16.63;;;10.60;;
55784;SDS011;41709;52.536;5.688;2023-05-14T08:30:31;16.83;;;8.80;;
55784;SDS011;41709;52.536;5.688;2023-05-14T08:32:57;17.08;;;9.95;;
55784;SDS011;41709;52.536;5.688;2023-05-14T08:35:23;13.90;;;9.85;;
55784;SDS011;41709;52.536;5.688;2023-05-14T08:37:48;16.88;;;9.30;;
55784;SDS011;41709;52.536;5.688;2023-05-14T08:40:14;18.48;;;9.25;;
55784;SDS011;41709;52.536;5.688;2023-05-14T08:42:40;15.30;;;10.15;;
55784;SDS011;41709;52.536;5.688;2023-05-14T08:45:07;13.48;;;9.65;;
55784;SDS011;41709;52.536;5.688;2023-05-14T08:47:40;15.77;;;10.13;;
55784;SDS011;41709;52.536;5.688;2023-05-14T08:50:11;14.10;;;9.05;;
55784;SDS011;41709;52.536;5.688;2023-05-14T08:52:36;16.52;;;9.13;;
55784;SDS011;41709;52.536;5.688;2023-05-14T08:55:03;15.13;;;9.13;;
55784;SDS011;41709;52.536;5.688;2023-05-14T08:57:30;15.20;;;9.80;;
55784;SDS011;41709;52.536;5.688;2023-05-14T08:59:57;12.82;;;9.43;;
55784;SDS011;41709;52.536;5.688;2023-05-14T09:02:23;13.57;;;9.68;;
55784;SDS011;41709;52.536;5.688;2023-05-14T09:04:56;22.70;;;10.70;;
55784;SDS011;41709;52.536;5.688;2023-05-14T09:07:23;16.63;;;9.85;;
55784;SDS011;41709;52.536;5.688;2023-05-14T09:09:49;16.35;;;9.63;;
55784;SDS011;41709;52.536;5.688;2023-05-14T09:12:15;14.90;;;9.02;;
55784;SDS011;41709;52.536;5.688;2023-05-14T09:14:41;19.38;;;9.35;;
55784;SDS011;41709;52.536;5.688;2023-05-14T09:17:07;15.70;;;9.73;;
55784;SDS011;41709;52.536;5.688;2023-05-14T09:19:33;18.25;;;10.05;;
55784;SDS011;41709;52.536;5.688;2023-05-14T09:21:59;16.98;;;10.13;;
55784;SDS011;41709;52.536;5.688;2023-05-14T09:24:25;13.32;;;9.18;;
55784;SDS011;41709;52.536;5.688;2023-05-14T09:26:54;16.27;;;10.60;;
55784;SDS011;41709;52.536;5.688;2023-05-14T09:29:28;13.82;;;9.40;;
55784;SDS011;41709;52.536;5.688;2023-05-14T09:31:55;16.02;;;9.07;;
55784;SDS011;41709;52.536;5.688;2023-05-14T09:34:28;16.70;;;10.18;;
55784;SDS011;41709;52.536;5.688;2023-05-14T09:36:58;16.92;;;9.25;;
55784;SDS011;41709;52.536;5.688;2023-05-14T09:39:24;14.30;;;8.90;;
55784;SDS011;41709;52.536;5.688;2023-05-14T09:41:50;14.27;;;8.40;;
55784;SDS011;41709;52.536;5.688;2023-05-14T09:44:17;14.65;;;9.15;;
55784;SDS011;41709;52.536;5.688;2023-05-14T09:46:43;18.00;;;9.38;;
55784;SDS011;41709;52.536;5.688;2023-05-14T09:49:10;12.60;;;9.27;;
55784;SDS011;41709;52.536;5.688;2023-05-14T09:51:36;15.43;;;9.60;;
55784;SDS011;41709;52.536;5.688;2023-05-14T09:54:01;13.40;;;9.05;;
55784;SDS011;41709;52.536;5.688;2023-05-14T09:56:28;15.40;;;9.32;;
55784;SDS011;41709;52.536;5.688;2023-05-14T09:58:54;16.42;;;8.93;;
55784;SDS011;41709;52.536;5.688;2023-05-14T10:01:20;13.25;;;8.57;;
55784;SDS011;41709;52.536;5.688;2023-05-14T10:03:47;13.35;;;8.80;;
55784;SDS011;41709;52.536;5.688;2023-05-14T10:06:13;17.50;;;8.88;;
55784;SDS011;41709;52.536;5.688;2023-05-14T10:08:42;11.70;;;8.38;;
55784;SDS011;41709;52.536;5.688;2023-05-14T10:11:13;13.35;;;8.05;;
55784;SDS011;41709;52.536;5.688;2023-05-14T10:13:45;14.88;;;8.88;;
55784;SDS011;41709;52.536;5.688;2023-05-14T10:16:30;13.32;;;7.55;;
55784;SDS011;41709;52.536;5.688;2023-05-14T10:19:00;11.07;;;8.57;;
55784;SDS011;41709;52.536;5.688;2023-05-14T10:21:35;16.60;;;8.40;;
55784;SDS011;41709;52.536;5.688;2023-05-14T10:24:02;13.55;;;8.80;;
55784;SDS011;41709;52.536;5.688;2023-05-14T10:26:30;16.42;;;8.10;;
55784;SDS011;41709;52.536;5.688;2023-05-14T10:28:56;15.48;;;7.80;;
55784;SDS011;41709;52.536;5.688;2023-05-14T10:31:33;12.80;;;8.05;;
55784;SDS011;41709;52.536;5.688;2023-05-14T10:37:00;11.55;;;7.57;;
55784;SDS011;41709;52.536;5.688;2023-05-14T10:42:12;11.75;;;7.22;;
55784;SDS011;41709;52.536;5.688;2023-05-14T10:44:51;8.82;;;6.30;;
55784;SDS011;41709;52.536;5.688;2023-05-14T10:47:22;12.02;;;7.43;;
55784;SDS011;41709;52.536;5.688;2023-05-14T10:49:51;9.02;;;6.97;;
55784;SDS011;41709;52.536;5.688;2023-05-14T10:52:18;9.75;;;7.35;;
55784;SDS011;41709;52.536;5.688;2023-05-14T10:54:48;12.82;;;6.55;;
55784;SDS011;41709;52.536;5.688;2023-05-14T10:57:21;12.85;;;6.72;;
55784;SDS011;41709;52.536;5.688;2023-05-14T10:59:48;9.55;;;6.90;;
55784;SDS011;41709;52.536;5.688;2023-05-14T11:02:25;9.88;;;6.25;;
55784;SDS011;41709;52.536;5.688;2023-05-14T11:04:53;9.98;;;6.45;;
55784;SDS011;41709;52.536;5.688;2023-05-14T11:07:23;10.20;;;6.00;;
55784;SDS011;41709;52.536;5.688;2023-05-14T11:09:51;12.68;;;6.18;;
55784;SDS011;41709;52.536;5.688;2023-05-14T11:12:19;10.98;;;6.13;;
55784;SDS011;41709;52.536;5.688;2023-05-14T11:14:45;8.77;;;6.38;;
55784;SDS011;41709;52.536;5.688;2023-05-14T11:17:11;14.85;;;6.57;;
55784;SDS011;41709;52.536;5.688;2023-05-14T11:19:37;9.02;;;6.60;;
55784;SDS011;41709;52.536;5.688;2023-05-14T11:22:02;10.68;;;6.00;;
55784;SDS011;41709;52.536;5.688;2023-05-14T11:24:28;12.65;;;6.97;;
55784;SDS011;41709;52.536;5.688;2023-05-14T11:26:53;9.63;;;5.70;;
55784;SDS011;41709;52.536;5.688;2023-05-14T11:29:20;11.45;;;5.95;;
55784;SDS011;41709;52.536;5.688;2023-05-14T11:31:46;12.50;;;6.65;;
55784;SDS011;41709;52.536;5.688;2023-05-14T11:34:11;12.82;;;6.38;;
55784;SDS011;41709;52.536;5.688;2023-05-14T11:36:37;11.15;;;6.03;;
55784;SDS011;41709;52.536;5.688;2023-05-14T11:39:03;13.15;;;6.10;;
55784;SDS011;41709;52.536;5.688;2023-05-14T11:41:28;11.95;;;6.18;;
55784;SDS011;41709;52.536;5.688;2023-05-14T11:43:55;10.23;;;6.05;;
55784;SDS011;41709;52.536;5.688;2023-05-14T11:46:21;10.60;;;6.45;;
55784;SDS011;41709;52.536;5.688;2023-05-14T11:48:48;9.25;;;6.10;;
55784;SDS011;41709;52.536;5.688;2023-05-14T11:51:13;10.85;;;5.80;;
55784;SDS011;41709;52.536;5.688;2023-05-14T11:53:39;9.82;;;6.03;;
55784;SDS011;41709;52.536;5.688;2023-05-14T11:56:04;10.70;;;6.43;;
55784;SDS011;41709;52.536;5.688;2023-05-14T11:58:31;10.35;;;5.70;;
55784;SDS011;41709;52.536;5.688;2023-05-14T12:00:57;10.82;;;5.93;;
55784;SDS011;41709;52.536;5.688;2023-05-14T12:03:23;13.90;;;6.40;;
55784;SDS011;41709;52.536;5.688;2023-05-14T12:05:56;9.18;;;5.35;;
55784;SDS011;41709;52.536;5.688;2023-05-14T12:08:29;10.73;;;5.75;;
55784;SDS011;41709;52.536;5.688;2023-05-14T12:10:59;15.23;;;5.88;;
55784;SDS011;41709;52.536;5.688;2023-05-14T12:13:28;11.45;;;6.97;;
55784;SDS011;41709;52.536;5.688;2023-05-14T12:15:56;15.75;;;6.50;;
55784;SDS011;41709;52.536;5.688;2023-05-14T12:18:24;9.40;;;5.50;;
55784;SDS011;41709;52.536;5.688;2023-05-14T12:20:52;8.82;;;5.70;;
55784;SDS011;41709;52.536;5.688;2023-05-14T12:23:24;10.38;;;6.13;;
55784;SDS011;41709;52.536;5.688;2023-05-14T12:25:50;8.23;;;5.63;;
55784;SDS011;41709;52.536;5.688;2023-05-14T12:28:17;10.25;;;5.85;;
55784;SDS011;41709;52.536;5.688;2023-05-14T12:30:43;10.68;;;6.40;;
55784;SDS011;41709;52.536;5.688;2023-05-14T12:33:10;11.98;;;6.25;;
55784;SDS011;41709;52.536;5.688;2023-05-14T12:35:35;11.45;;;5.78;;
55784;SDS011;41709;52.536;5.688;2023-05-14T12:38:02;13.80;;;6.35;;
55784;SDS011;41709;52.536;5.688;2023-05-14T12:40:27;8.23;;;5.40;;
55784;SDS011;41709;52.536;5.688;2023-05-14T12:42:53;9.10;;;4.82;;
55784;SDS011;41709;52.536;5.688;2023-05-14T12:45:19;9.82;;;5.38;;
55784;SDS011;41709;52.536;5.688;2023-05-14T12:47:45;9.38;;;5.43;;
55784;SDS011;41709;52.536;5.688;2023-05-14T12:50:10;6.40;;;5.10;;
55784;SDS011;41709;52.536;5.688;2023-05-14T12:52:36;8.55;;;5.38;;
55784;SDS011;41709;52.536;5.688;2023-05-14T12:55:01;9.98;;;5.43;;
55784;SDS011;41709;52.536;5.688;2023-05-14T12:57:27;10.68;;;4.93;;
55784;SDS011;41709;52.536;5.688;2023-05-14T12:59:54;9.88;;;5.07;;
55784;SDS011;41709;52.536;5.688;2023-05-14T13:02:20;8.02;;;5.00;;
55784;SDS011;41709;52.536;5.688;2023-05-14T13:04:45;8.15;;;5.07;;
55784;SDS011;41709;52.536;5.688;2023-05-14T13:07:11;9.25;;;5.03;;
55784;SDS011;41709;52.536;5.688;2023-05-14T13:09:37;10.75;;;5.05;;
55784;SDS011;41709;52.536;5.688;2023-05-14T13:12:02;11.45;;;5.18;;
55784;SDS011;41709;52.536;5.688;2023-05-14T13:14:28;13.90;;;6.85;;
55784;SDS011;41709;52.536;5.688;2023-05-14T13:16:54;8.18;;;5.10;;
55784;SDS011;41709;52.536;5.688;2023-05-14T13:19:19;10.52;;;4.78;;
55784;SDS011;41709;52.536;5.688;2023-05-14T13:21:45;10.20;;;5.68;;
55784;SDS011;41709;52.536;5.688;2023-05-14T13:24:10;8.77;;;5.43;;
55784;SDS011;41709;52.536;5.688;2023-05-14T13:26:36;8.00;;;5.05;;
55784;SDS011;41709;52.536;5.688;2023-05-14T13:29:02;8.20;;;5.90;;
55784;SDS011;41709;52.536;5.688;2023-05-14T13:31:28;9.82;;;5.32;;
55784;SDS011;41709;52.536;5.688;2023-05-14T13:33:53;8.60;;;5.57;;
55784;SDS011;41709;52.536;5.688;2023-05-14T13:36:19;9.32;;;4.53;;
55784;SDS011;41709;52.536;5.688;2023-05-14T13:38:44;9.30;;;5.63;;
55784;SDS011;41709;52.536;5.688;2023-05-14T13:41:10;10.30;;;4.43;;
55784;SDS011;41709;52.536;5.688;2023-05-14T13:43:36;11.10;;;4.57;;
55784;SDS011;41709;52.536;5.688;2023-05-14T13:46:02;9.95;;;4.80;;
55784;SDS011;41709;52.536;5.688;2023-05-14T13:48:29;9.10;;;4.80;;
55784;SDS011;41709;52.536;5.688;2023-05-14T13:50:55;14.85;;;5.22;;
55784;SDS011;41709;52.536;5.688;2023-05-14T13:53:21;11.60;;;4.70;;
55784;SDS011;41709;52.536;5.688;2023-05-14T13:55:48;11.25;;;4.55;;
55784;SDS011;41709;52.536;5.688;2023-05-14T13:58:13;9.70;;;3.70;;
55784;SDS011;41709;52.536;5.688;2023-05-14T14:00:40;10.02;;;4.85;;
55784;SDS011;41709;52.536;5.688;2023-05-14T14:03:06;6.82;;;4.22;;
55784;SDS011;41709;52.536;5.688;2023-05-14T14:05:32;6.68;;;4.22;;
55784;SDS011;41709;52.536;5.688;2023-05-14T14:10:26;13.00;;;3.95;;
55784;SDS011;41709;52.536;5.688;2023-05-14T14:12:52;6.82;;;4.18;;
55784;SDS011;41709;52.536;5.688;2023-05-14T14:15:17;9.98;;;4.28;;
55784;SDS011;41709;52.536;5.688;2023-05-14T14:17:43;9.60;;;4.15;;
55784;SDS011;41709;52.536;5.688;2023-05-14T14:20:09;22.13;;;4.13;;
55784;SDS011;41709;52.536;5.688;2023-05-14T14:22:35;6.63;;;3.55;;
55784;SDS011;41709;52.536;5.688;2023-05-14T14:25:01;5.72;;;3.58;;
55784;SDS011;41709;52.536;5.688;2023-05-14T14:27:27;10.60;;;4.90;;
55784;SDS011;41709;52.536;5.688;2023-05-14T14:29:58;8.63;;;3.50;;
55784;SDS011;41709;52.536;5.688;2023-05-14T14:32:24;7.57;;;4.00;;
55784;SDS011;41709;52.536;5.688;2023-05-14T14:34:50;8.85;;;4.45;;
55784;SDS011;41709;52.536;5.688;2023-05-14T14:37:15;8.88;;;3.97;;
55784;SDS011;41709;52.536;5.688;2023-05-14T14:39:41;8.32;;;3.53;;
55784;SDS011;41709;52.536;5.688;2023-05-14T14:42:06;8.05;;;3.97;;
55784;SDS011;41709;52.536;5.688;2023-05-14T14:44:32;9.55;;;4.22;;
55784;SDS011;41709;52.536;5.688;2023-05-14T14:46:58;10.27;;;4.45;;
55784;SDS011;41709;52.536;5.688;2023-05-14T14:49:23;8.05;;;4.32;;